createdAt,value
2018-06-25T08:14:24.079Z,98601.11
2018-06-25T08:15:28.103Z,98601.94
2018-06-25T08:16:32.464Z,98606.16
2018-06-25T08:17:36.326Z,98605.32
2018-06-25T08:18:40.128Z,98602.66
2018-06-25T08:19:44.449Z,98610.17
2018-06-25T08:20:48.288Z,98605.41
2018-06-25T08:21:52.124Z,98611.31
2018-06-25T08:22:56.004Z,98619.02
2018-06-25T08:23:59.832Z,98616.97
2018-06-25T08:25:03.660Z,98612.83
2018-06-25T08:26:08.701Z,98621.14
2018-06-25T08:27:12.498Z,98621.86
2018-06-25T08:28:17.284Z,98623.00
2018-06-25T08:29:21.688Z,98621.67
2018-06-25T08:30:25.776Z,98622.84
2018-06-25T08:31:29.559Z,98625.45
2018-06-25T08:32:33.672Z,98623.97
2018-06-25T08:33:37.475Z,98630.55
2018-06-25T08:34:41.302Z,98629.52
2018-06-25T08:35:45.924Z,98633.38
2018-06-25T08:36:49.699Z,98629.37
2018-06-25T08:37:53.456Z,98630.64
2018-06-25T08:38:57.519Z,98622.23
2018-06-25T08:40:01.387Z,98544.33
2018-06-25T08:41:05.200Z,98628.34
2018-06-25T08:42:08.975Z,98639.33
2018-06-25T08:43:12.779Z,98636.54
2018-06-25T08:44:16.572Z,98637.72
2018-06-25T08:45:20.629Z,98643.37
2018-06-25T08:46:26.345Z,98638.28
2018-06-25T08:47:30.195Z,98638.49
2018-06-25T08:48:34.024Z,98641.00
2018-06-25T08:49:37.818Z,98641.41
2018-06-25T08:50:41.599Z,98637.88
2018-06-25T08:51:45.797Z,98637.55
2018-06-25T08:52:49.580Z,98645.97
2018-06-25T08:53:53.372Z,98643.36
2018-06-25T08:54:57.780Z,98578.21
2018-06-25T08:56:01.622Z,98647.77
2018-06-25T08:57:05.423Z,98644.63
2018-06-25T08:58:09.558Z,98646.84
2018-06-25T08:59:13.398Z,98642.83
2018-06-25T09:00:17.871Z,98648.55
2018-06-25T09:01:21.715Z,98586.06
2018-06-25T09:02:25.599Z,98643.14
2018-06-25T09:03:29.393Z,98653.82
2018-06-25T09:04:33.632Z,98642.64
2018-06-25T09:05:37.407Z,98640.47
2018-06-25T09:06:41.215Z,98644.38
2018-06-25T09:07:46.564Z,98643.05
2018-06-25T09:08:50.340Z,98645.00
2018-06-25T09:09:56.958Z,98649.00
2018-06-25T09:11:01.806Z,98649.31
2018-06-25T09:12:05.703Z,98652.84
2018-06-25T09:13:09.509Z,98651.52
2018-06-25T09:14:13.300Z,98661.27
2018-06-25T09:15:17.163Z,98652.37
2018-06-25T09:16:21.569Z,98655.98
2018-06-25T09:17:27.766Z,98653.31
2018-06-25T09:18:31.606Z,98647.92
2018-06-25T09:19:35.395Z,98647.61
2018-06-25T09:20:39.200Z,98648.17
2018-06-25T09:21:46.015Z,98648.70
2018-06-25T09:22:50.360Z,98655.00
2018-06-25T09:23:54.511Z,98649.66
2018-06-25T09:25:00.300Z,98645.26
2018-06-25T09:26:04.286Z,98646.66
2018-06-25T09:27:08.731Z,98647.05
2018-06-25T09:28:14.665Z,98657.33
2018-06-25T09:29:18.520Z,98653.33
2018-06-25T09:30:22.758Z,98652.09
2018-06-25T09:31:26.529Z,98647.98
2018-06-25T09:32:30.526Z,98658.14
2018-06-25T09:33:34.887Z,98650.13
2018-06-25T09:34:43.857Z,98652.33
2018-06-25T09:35:48.652Z,98645.66
2018-06-25T09:36:53.388Z,98655.84
2018-06-25T09:37:58.466Z,98656.34
2018-06-25T09:39:02.254Z,98654.59
2018-06-25T09:40:07.487Z,98650.19
2018-06-25T09:41:11.381Z,98651.98
2018-06-25T09:42:15.449Z,98654.66
2018-06-25T09:43:20.551Z,98654.66
2018-06-25T09:44:25.118Z,98596.98
2018-06-25T09:45:29.434Z,98656.09
2018-06-25T09:46:33.999Z,98653.42
2018-06-25T09:47:38.373Z,98650.75
2018-06-25T09:48:42.151Z,98650.34
2018-06-25T09:49:46.409Z,98651.16
2018-06-25T09:50:50.195Z,98647.62
2018-06-25T09:51:54.675Z,98649.42
2018-06-25T09:52:59.869Z,98645.81
2018-06-25T09:54:03.951Z,98650.75
2018-06-25T09:55:07.804Z,98648.08
2018-06-25T09:56:12.085Z,98650.19
2018-06-25T09:57:16.271Z,98650.28
2018-06-25T09:58:20.247Z,98652.48
2018-06-25T09:59:24.686Z,98649.72
2018-06-25T10:00:33.411Z,98651.98
2018-06-25T10:01:37.259Z,98654.66
2018-06-25T10:02:42.731Z,98529.42
2018-06-25T10:03:46.545Z,98652.48
2018-06-25T10:04:50.950Z,98653.27
2018-06-25T10:05:54.716Z,98655.53
2018-06-25T10:07:04.319Z,98657.73
2018-06-25T10:08:08.117Z,98664.34
2018-06-25T10:09:14.402Z,98656.55
2018-06-25T10:10:18.290Z,98656.55
2018-06-25T10:11:22.119Z,98659.53
2018-06-25T10:12:25.869Z,98656.23
2018-06-25T10:13:29.645Z,98661.48
2018-06-25T10:14:33.435Z,98659.68
2018-06-25T10:15:37.751Z,98658.75
2018-06-25T10:16:41.674Z,98660.48
2018-06-25T10:17:45.534Z,98660.86
2018-06-25T10:18:50.413Z,98661.27
2018-06-25T10:19:54.224Z,98654.19
2018-06-25T10:20:59.833Z,98664.39
2018-06-25T10:22:09.413Z,98660.30
2018-06-25T10:23:14.519Z,98666.04
2018-06-25T10:24:19.228Z,98666.44
2018-06-25T10:25:23.468Z,98663.30
2018-06-25T10:26:27.249Z,98665.48
2018-06-25T10:44:33.019Z,98540.88
2018-06-25T10:45:36.795Z,98674.61
2018-06-25T10:46:40.580Z,98678.22
2018-06-25T10:47:44.405Z,98672.41
2018-06-25T10:48:49.340Z,98678.47
2018-06-25T10:49:53.566Z,98677.29
2018-06-25T10:50:59.358Z,98678.53
2018-06-25T10:52:03.207Z,98675.86
2018-06-25T10:53:07.928Z,98679.03
2018-06-25T10:54:11.715Z,98676.42
2018-06-25T10:55:18.528Z,98676.52
2018-06-25T10:56:23.743Z,98678.69
2018-06-25T10:57:29.570Z,98679.55
2018-06-25T10:58:33.711Z,98676.73
2018-06-25T10:59:37.692Z,98678.84
2018-06-25T11:00:42.312Z,98668.87
2018-06-25T20:17:58.109Z,98692.64
2018-06-25T20:19:02.926Z,98693.14
2018-06-25T20:20:08.795Z,98693.04
2018-06-25T20:21:17.228Z,98691.55
2018-06-25T20:22:21.841Z,98687.89
2018-06-25T20:23:29.743Z,98687.92
2018-06-25T20:24:35.831Z,98685.83
2018-06-25T20:25:43.324Z,98681.05
2018-06-25T20:26:48.818Z,98688.69
2018-06-25T20:27:52.636Z,98688.36
2018-06-25T20:28:59.422Z,98692.15
2018-06-25T20:30:04.236Z,98684.87
2018-06-25T20:31:08.779Z,98684.16
2018-06-25T20:32:13.145Z,98679.55
2018-06-25T20:33:16.939Z,98687.70
2018-06-25T20:34:20.733Z,98688.98
2018-06-25T20:35:25.675Z,98687.55
2018-06-25T20:36:31.097Z,98693.23
2018-06-25T20:37:35.110Z,98695.72
2018-06-25T20:38:56.294Z,98696.53
2018-06-25T20:40:01.110Z,98703.11
2018-06-25T20:41:06.105Z,98700.44
2018-06-25T20:42:12.513Z,98704.45
2018-06-25T20:43:18.482Z,98697.30
2018-06-25T20:44:24.114Z,98705.22
2018-06-25T20:45:29.550Z,98698.95
2018-06-25T20:46:40.410Z,98702.90
2018-06-25T20:47:48.530Z,98704.23
2018-06-25T20:48:53.839Z,98706.41
2018-06-25T20:49:58.436Z,98714.72
2018-06-25T20:51:03.509Z,98708.05
2018-06-25T20:52:07.345Z,98712.92
2018-06-25T20:53:16.583Z,98705.32
2018-06-25T20:54:21.399Z,98711.99
2018-06-25T20:55:25.324Z,98708.86
2018-06-25T20:56:32.405Z,98713.17
2018-06-25T20:57:36.724Z,98713.17
2018-06-25T20:58:40.818Z,98710.41
2018-06-25T20:59:45.506Z,98709.48
2018-06-25T21:05:53.114Z,98705.57
2018-06-25T21:06:57.626Z,98700.23
2018-06-25T21:08:01.438Z,98705.57
2018-06-25T21:09:05.309Z,98703.27
2018-06-25T21:10:10.304Z,98638.39
2018-06-25T21:11:15.329Z,98703.67
2018-06-25T21:12:20.142Z,98706.72
2018-06-25T21:13:24.895Z,98706.72
2018-06-25T21:14:33.079Z,98704.55
2018-06-25T21:15:40.572Z,98710.25
2018-06-25T21:16:46.568Z,98705.32
2018-06-25T21:50:27.689Z,98690.97
2018-06-25T21:51:32.532Z,98691.05
2018-06-25T21:52:38.089Z,98692.67
